sensor_id;sensor_type;location;lat;lon;timestamp;temperature;humidity
25933;DHT22;13731;51.166;4.474;2022-12-18T00:01:58;-4.00;99.90
25933;DHT22;13731;51.166;4.474;2022-12-18T00:04:25;-4.10;99.90
25933;DHT22;13731;51.166;4.474;2022-12-18T00:06:51;-4.10;99.90
25933;DHT22;13731;51.166;4.474;2022-12-18T00:09:17;-4.20;99.90
25933;DHT22;13731;51.166;4.474;2022-12-18T00:11:43;-4.20;99.90
25933;DHT22;13731;51.166;4.474;2022-12-18T00:14:09;-4.20;99.90
25933;DHT22;13731;51.166;4.474;2022-12-18T00:16:36;-4.20;99.90
25933;DHT22;13731;51.166;4.474;2022-12-18T00:19:02;-4.20;99.90
25933;DHT22;13731;51.166;4.474;2022-12-18T00:21:29;-4.30;99.90
25933;DHT22;13731;51.166;4.474;2022-12-18T00:23:55;-4.40;99.90
25933;DHT22;13731;51.166;4.474;2022-12-18T00:26:25;-4.30;99.90
25933;DHT22;13731;51.166;4.474;2022-12-18T00:28:57;-4.30;98.80
25933;DHT22;13731;51.166;4.474;2022-12-18T00:31:24;-4.30;97.70
25933;DHT22;13731;51.166;4.474;2022-12-18T00:33:55;-4.40;97.80
25933;DHT22;13731;51.166;4.474;2022-12-18T00:36:22;-4.30;99.90
25933;DHT22;13731;51.166;4.474;2022-12-18T00:38:51;-4.30;98.50
25933;DHT22;13731;51.166;4.474;2022-12-18T00:41:17;-4.30;94.80
25933;DHT22;13731;51.166;4.474;2022-12-18T00:44:04;-4.40;95.90
25933;DHT22;13731;51.166;4.474;2022-12-18T00:46:30;-4.30;97.30
25933;DHT22;13731;51.166;4.474;2022-12-18T00:48:56;-4.30;93.80
25933;DHT22;13731;51.166;4.474;2022-12-18T00:51:22;-4.30;90.90
25933;DHT22;13731;51.166;4.474;2022-12-18T00:53:48;-4.40;89.40
25933;DHT22;13731;51.166;4.474;2022-12-18T00:56:14;-4.40;82.90
25933;DHT22;13731;51.166;4.474;2022-12-18T00:58:39;-4.40;76.30
25933;DHT22;13731;51.166;4.474;2022-12-18T01:01:05;-4.50;71.10
25933;DHT22;13731;51.166;4.474;2022-12-18T01:03:33;-4.50;68.20
25933;DHT22;13731;51.166;4.474;2022-12-18T01:05:59;-4.50;63.40
25933;DHT22;13731;51.166;4.474;2022-12-18T01:08:24;-4.50;59.90
25933;DHT22;13731;51.166;4.474;2022-12-18T01:10:50;-4.50;58.10
25933;DHT22;13731;51.166;4.474;2022-12-18T01:13:16;-4.60;57.50
25933;DHT22;13731;51.166;4.474;2022-12-18T01:15:51;-4.70;56.30
25933;DHT22;13731;51.166;4.474;2022-12-18T01:18:17;-4.70;62.40
25933;DHT22;13731;51.166;4.474;2022-12-18T01:20:42;-4.70;65.20
25933;DHT22;13731;51.166;4.474;2022-12-18T01:23:08;-4.80;76.10
25933;DHT22;13731;51.166;4.474;2022-12-18T01:25:35;-4.80;87.50
25933;DHT22;13731;51.166;4.474;2022-12-18T01:28:01;-4.80;87.30
25933;DHT22;13731;51.166;4.474;2022-12-18T01:30:27;-4.80;87.70
25933;DHT22;13731;51.166;4.474;2022-12-18T01:32:53;-4.80;79.40
25933;DHT22;13731;51.166;4.474;2022-12-18T01:35:18;-4.70;66.80
25933;DHT22;13731;51.166;4.474;2022-12-18T01:37:45;-4.80;57.40
25933;DHT22;13731;51.166;4.474;2022-12-18T01:40:11;-4.80;55.50
25933;DHT22;13731;51.166;4.474;2022-12-18T01:42:37;-4.80;60.10
25933;DHT22;13731;51.166;4.474;2022-12-18T01:45:22;-4.90;66.30
25933;DHT22;13731;51.166;4.474;2022-12-18T01:47:56;-4.90;75.10
25933;DHT22;13731;51.166;4.474;2022-12-18T01:52:55;-4.80;68.80
25933;DHT22;13731;51.166;4.474;2022-12-18T01:55:23;-4.90;79.20
25933;DHT22;13731;51.166;4.474;2022-12-18T01:57:49;-4.90;83.00
25933;DHT22;13731;51.166;4.474;2022-12-18T02:00:18;-4.90;84.40
25933;DHT22;13731;51.166;4.474;2022-12-18T02:02:45;-5.10;92.40
25933;DHT22;13731;51.166;4.474;2022-12-18T02:05:12;-5.10;98.50
25933;DHT22;13731;51.166;4.474;2022-12-18T02:07:42;-5.10;99.80
25933;DHT22;13731;51.166;4.474;2022-12-18T02:10:19;-5.10;98.10
25933;DHT22;13731;51.166;4.474;2022-12-18T02:12:53;-5.00;93.90
25933;DHT22;13731;51.166;4.474;2022-12-18T02:15:35;-5.00;78.80
25933;DHT22;13731;51.166;4.474;2022-12-18T02:18:09;-5.00;75.40
25933;DHT22;13731;51.166;4.474;2022-12-18T02:20:38;-5.00;74.40
25933;DHT22;13731;51.166;4.474;2022-12-18T02:28:28;-5.10;63.90
25933;DHT22;13731;51.166;4.474;2022-12-18T02:30:58;-5.00;58.90
25933;DHT22;13731;51.166;4.474;2022-12-18T02:33:27;-5.00;56.00
25933;DHT22;13731;51.166;4.474;2022-12-18T02:35:53;-5.00;53.40
25933;DHT22;13731;51.166;4.474;2022-12-18T02:38:20;-5.00;54.00
25933;DHT22;13731;51.166;4.474;2022-12-18T02:40:49;-5.10;53.30
25933;DHT22;13731;51.166;4.474;2022-12-18T02:43:16;-5.10;59.00
25933;DHT22;13731;51.166;4.474;2022-12-18T02:45:46;-5.00;58.00
25933;DHT22;13731;51.166;4.474;2022-12-18T02:48:12;-5.00;58.30
25933;DHT22;13731;51.166;4.474;2022-12-18T02:50:40;-5.00;53.90
25933;DHT22;13731;51.166;4.474;2022-12-18T02:53:18;-4.90;43.70
25933;DHT22;13731;51.166;4.474;2022-12-18T02:56:29;-4.90;39.70
25933;DHT22;13731;51.166;4.474;2022-12-18T03:03:43;-4.80;36.80
25933;DHT22;13731;51.166;4.474;2022-12-18T03:08:44;-4.90;30.40
25933;DHT22;13731;51.166;4.474;2022-12-18T03:11:11;-4.90;29.90
25933;DHT22;13731;51.166;4.474;2022-12-18T03:13:52;-5.00;25.80
25933;DHT22;13731;51.166;4.474;2022-12-18T03:16:23;-5.00;26.90
25933;DHT22;13731;51.166;4.474;2022-12-18T03:18:51;-5.00;26.50
25933;DHT22;13731;51.166;4.474;2022-12-18T03:21:21;-5.10;23.30
25933;DHT22;13731;51.166;4.474;2022-12-18T03:23:48;-5.00;24.60
25933;DHT22;13731;51.166;4.474;2022-12-18T03:26:19;-5.00;29.30
25933;DHT22;13731;51.166;4.474;2022-12-18T03:28:51;-5.00;41.20
25933;DHT22;13731;51.166;4.474;2022-12-18T03:31:19;-4.90;42.20
25933;DHT22;13731;51.166;4.474;2022-12-18T03:33:47;-4.90;29.50
25933;DHT22;13731;51.166;4.474;2022-12-18T03:36:16;-4.90;20.20
25933;DHT22;13731;51.166;4.474;2022-12-18T03:38:43;-4.80;23.10
25933;DHT22;13731;51.166;4.474;2022-12-18T03:41:29;-4.90;20.60
25933;DHT22;13731;51.166;4.474;2022-12-18T03:49:23;-4.90;1.00
25933;DHT22;13731;51.166;4.474;2022-12-18T03:51:54;-4.90;1.00
25933;DHT22;13731;51.166;4.474;2022-12-18T03:54:22;-5.00;1.00
25933;DHT22;13731;51.166;4.474;2022-12-18T03:57:00;-5.00;1.00
25933;DHT22;13731;51.166;4.474;2022-12-18T03:59:29;-5.10;1.00
25933;DHT22;13731;51.166;4.474;2022-12-18T04:01:56;-5.10;1.00
25933;DHT22;13731;51.166;4.474;2022-12-18T04:04:25;-5.10;1.00
25933;DHT22;13731;51.166;4.474;2022-12-18T04:06:53;-5.20;1.00
25933;DHT22;13731;51.166;4.474;2022-12-18T04:09:21;-5.20;1.00
25933;DHT22;13731;51.166;4.474;2022-12-18T04:11:49;-5.20;1.00
25933;DHT22;13731;51.166;4.474;2022-12-18T04:14:16;-5.20;1.00
25933;DHT22;13731;51.166;4.474;2022-12-18T04:16:43;-5.30;1.00
25933;DHT22;13731;51.166;4.474;2022-12-18T04:19:12;-5.30;1.00
25933;DHT22;13731;51.166;4.474;2022-12-18T04:21:40;-5.30;9.60
25933;DHT22;13731;51.166;4.474;2022-12-18T04:24:09;-5.30;10.60
25933;DHT22;13731;51.166;4.474;2022-12-18T04:26:38;-5.30;23.30
25933;DHT22;13731;51.166;4.474;2022-12-18T04:29:30;-5.20;27.90
25933;DHT22;13731;51.166;4.474;2022-12-18T04:31:56;-5.20;22.90
25933;DHT22;13731;51.166;4.474;2022-12-18T04:34:22;-5.20;15.40
25933;DHT22;13731;51.166;4.474;2022-12-18T04:36:51;-5.20;10.20
25933;DHT22;13731;51.166;4.474;2022-12-18T04:39:17;-5.20;1.10
25933;DHT22;13731;51.166;4.474;2022-12-18T04:41:43;-5.10;1.00
25933;DHT22;13731;51.166;4.474;2022-12-18T04:44:11;-5.10;1.00
25933;DHT22;13731;51.166;4.474;2022-12-18T04:46:37;-5.10;1.00
25933;DHT22;13731;51.166;4.474;2022-12-18T04:49:03;-5.10;1.00
25933;DHT22;13731;51.166;4.474;2022-12-18T04:51:28;-5.10;1.00
25933;DHT22;13731;51.166;4.474;2022-12-18T04:53:54;-5.00;1.00
25933;DHT22;13731;51.166;4.474;2022-12-18T04:56:20;-5.00;1.00
25933;DHT22;13731;51.166;4.474;2022-12-18T04:58:45;-5.00;1.00
25933;DHT22;13731;51.166;4.474;2022-12-18T05:01:14;-4.90;1.00
25933;DHT22;13731;51.166;4.474;2022-12-18T05:03:40;-5.00;1.00
25933;DHT22;13731;51.166;4.474;2022-12-18T05:06:06;-5.00;1.00
25933;DHT22;13731;51.166;4.474;2022-12-18T05:08:32;-5.10;1.00
25933;DHT22;13731;51.166;4.474;2022-12-18T05:11:01;-5.20;1.00
25933;DHT22;13731;51.166;4.474;2022-12-18T05:13:27;-5.20;1.00
25933;DHT22;13731;51.166;4.474;2022-12-18T05:15:53;-5.20;1.00
25933;DHT22;13731;51.166;4.474;2022-12-18T05:18:19;-5.20;1.00
25933;DHT22;13731;51.166;4.474;2022-12-18T05:20:45;-5.20;1.00
25933;DHT22;13731;51.166;4.474;2022-12-18T05:23:10;-5.30;1.00
25933;DHT22;13731;51.166;4.474;2022-12-18T05:25:36;-5.30;1.00
25933;DHT22;13731;51.166;4.474;2022-12-18T05:28:02;-5.30;1.00
25933;DHT22;13731;51.166;4.474;2022-12-18T05:30:27;-5.20;1.00
25933;DHT22;13731;51.166;4.474;2022-12-18T05:32:53;-5.20;1.00
25933;DHT22;13731;51.166;4.474;2022-12-18T05:35:19;-5.20;1.00
25933;DHT22;13731;51.166;4.474;2022-12-18T05:37:44;-5.10;1.00
25933;DHT22;13731;51.166;4.474;2022-12-18T05:40:10;-5.20;1.00
25933;DHT22;13731;51.166;4.474;2022-12-18T05:42:36;-5.30;1.00
25933;DHT22;13731;51.166;4.474;2022-12-18T05:45:02;-5.30;1.00
25933;DHT22;13731;51.166;4.474;2022-12-18T05:47:28;-5.40;1.00
25933;DHT22;13731;51.166;4.474;2022-12-18T05:49:54;-5.40;1.00
25933;DHT22;13731;51.166;4.474;2022-12-18T05:52:20;-5.40;1.00
25933;DHT22;13731;51.166;4.474;2022-12-18T05:54:45;-5.50;1.00
25933;DHT22;13731;51.166;4.474;2022-12-18T05:57:11;-5.50;1.00
25933;DHT22;13731;51.166;4.474;2022-12-18T05:59:37;-5.40;1.00
25933;DHT22;13731;51.166;4.474;2022-12-18T06:02:02;-5.40;1.00
25933;DHT22;13731;51.166;4.474;2022-12-18T06:04:28;-5.40;1.00
25933;DHT22;13731;51.166;4.474;2022-12-18T06:06:54;-5.30;1.00
25933;DHT22;13731;51.166;4.474;2022-12-18T06:09:19;-5.30;1.00
25933;DHT22;13731;51.166;4.474;2022-12-18T06:11:45;-5.20;1.00
25933;DHT22;13731;51.166;4.474;2022-12-18T06:14:11;-5.10;1.00
25933;DHT22;13731;51.166;4.474;2022-12-18T06:16:37;-5.10;1.00
25933;DHT22;13731;51.166;4.474;2022-12-18T06:19:03;-5.10;1.00
25933;DHT22;13731;51.166;4.474;2022-12-18T06:21:30;-5.10;1.00
25933;DHT22;13731;51.166;4.474;2022-12-18T06:23:55;-5.20;1.00
25933;DHT22;13731;51.166;4.474;2022-12-18T06:26:21;-5.30;1.00
25933;DHT22;13731;51.166;4.474;2022-12-18T06:28:47;-5.30;1.00
25933;DHT22;13731;51.166;4.474;2022-12-18T06:31:13;-5.30;1.00
25933;DHT22;13731;51.166;4.474;2022-12-18T06:33:39;-5.30;1.00
25933;DHT22;13731;51.166;4.474;2022-12-18T06:36:08;-5.30;1.00
25933;DHT22;13731;51.166;4.474;2022-12-18T06:38:34;-5.20;1.00
25933;DHT22;13731;51.166;4.474;2022-12-18T06:41:02;-5.20;1.00
25933;DHT22;13731;51.166;4.474;2022-12-18T06:43:31;-5.20;1.00
25933;DHT22;13731;51.166;4.474;2022-12-18T06:46:00;-5.20;1.00
25933;DHT22;13731;51.166;4.474;2022-12-18T06:48:26;-5.20;1.00
25933;DHT22;13731;51.166;4.474;2022-12-18T06:50:53;-5.10;1.00
25933;DHT22;13731;51.166;4.474;2022-12-18T06:53:18;-5.10;1.00
25933;DHT22;13731;51.166;4.474;2022-12-18T06:55:44;-5.10;1.00
25933;DHT22;13731;51.166;4.474;2022-12-18T06:58:10;-5.10;1.00
25933;DHT22;13731;51.166;4.474;2022-12-18T07:00:35;-5.10;1.00
25933;DHT22;13731;51.166;4.474;2022-12-18T07:03:01;-5.10;99.90
25933;DHT22;13731;51.166;4.474;2022-12-18T07:05:27;-5.20;99.90
25933;DHT22;13731;51.166;4.474;2022-12-18T07:07:52;-5.30;99.90
25933;DHT22;13731;51.166;4.474;2022-12-18T07:10:18;-5.30;99.90
25933;DHT22;13731;51.166;4.474;2022-12-18T07:12:44;-5.30;99.90
25933;DHT22;13731;51.166;4.474;2022-12-18T07:15:09;-5.30;99.90
25933;DHT22;13731;51.166;4.474;2022-12-18T07:17:35;-5.30;99.90
25933;DHT22;13731;51.166;4.474;2022-12-18T07:20:01;-5.30;99.90
25933;DHT22;13731;51.166;4.474;2022-12-18T07:22:27;-5.30;99.90
25933;DHT22;13731;51.166;4.474;2022-12-18T07:24:53;-5.30;99.90
25933;DHT22;13731;51.166;4.474;2022-12-18T07:27:18;-5.30;99.90
25933;DHT22;13731;51.166;4.474;2022-12-18T07:29:44;-5.40;99.90
25933;DHT22;13731;51.166;4.474;2022-12-18T07:32:10;-5.50;1.00
25933;DHT22;13731;51.166;4.474;2022-12-18T07:34:36;-5.60;1.00
25933;DHT22;13731;51.166;4.474;2022-12-18T07:37:01;-5.60;1.00
25933;DHT22;13731;51.166;4.474;2022-12-18T07:39:27;-5.60;1.00
25933;DHT22;13731;51.166;4.474;2022-12-18T07:41:53;-5.60;1.00
25933;DHT22;13731;51.166;4.474;2022-12-18T07:44:39;-5.60;1.00
25933;DHT22;13731;51.166;4.474;2022-12-18T07:47:04;-5.50;1.00
25933;DHT22;13731;51.166;4.474;2022-12-18T07:49:30;-5.60;1.00
25933;DHT22;13731;51.166;4.474;2022-12-18T07:51:56;-5.50;1.00
25933;DHT22;13731;51.166;4.474;2022-12-18T07:54:23;-5.50;1.00
25933;DHT22;13731;51.166;4.474;2022-12-18T07:56:48;-5.50;1.00
25933;DHT22;13731;51.166;4.474;2022-12-18T07:59:14;-5.30;1.00
25933;DHT22;13731;51.166;4.474;2022-12-18T08:01:40;-5.30;1.00
25933;DHT22;13731;51.166;4.474;2022-12-18T08:04:06;-5.30;1.00
25933;DHT22;13731;51.166;4.474;2022-12-18T08:06:31;-5.20;1.00
25933;DHT22;13731;51.166;4.474;2022-12-18T08:08:57;-5.20;1.00
25933;DHT22;13731;51.166;4.474;2022-12-18T08:11:23;-5.30;1.00
25933;DHT22;13731;51.166;4.474;2022-12-18T08:13:52;-5.40;1.00
25933;DHT22;13731;51.166;4.474;2022-12-18T08:16:18;-5.50;1.00
25933;DHT22;13731;51.166;4.474;2022-12-18T08:18:44;-5.40;1.00
25933;DHT22;13731;51.166;4.474;2022-12-18T08:21:10;-5.40;1.00
25933;DHT22;13731;51.166;4.474;2022-12-18T08:23:40;-5.30;1.00
25933;DHT22;13731;51.166;4.474;2022-12-18T08:26:06;-5.30;1.00
25933;DHT22;13731;51.166;4.474;2022-12-18T08:28:32;-5.30;1.00
25933;DHT22;13731;51.166;4.474;2022-12-18T08:30:57;-5.20;1.00
25933;DHT22;13731;51.166;4.474;2022-12-18T08:33:23;-5.20;1.00
25933;DHT22;13731;51.166;4.474;2022-12-18T08:35:49;-5.20;1.00
25933;DHT22;13731;51.166;4.474;2022-12-18T08:38:14;-5.20;1.00
25933;DHT22;13731;51.166;4.474;2022-12-18T08:40:40;-5.10;1.00
25933;DHT22;13731;51.166;4.474;2022-12-18T08:43:07;-4.90;1.00
25933;DHT22;13731;51.166;4.474;2022-12-18T08:45:53;-4.70;1.00
25933;DHT22;13731;51.166;4.474;2022-12-18T08:48:18;-4.60;1.00
25933;DHT22;13731;51.166;4.474;2022-12-18T08:50:53;-4.50;1.00
25933;DHT22;13731;51.166;4.474;2022-12-18T08:53:18;-4.30;1.00
25933;DHT22;13731;51.166;4.474;2022-12-18T08:55:44;-4.20;1.00
25933;DHT22;13731;51.166;4.474;2022-12-18T08:58:10;-4.20;99.90
25933;DHT22;13731;51.166;4.474;2022-12-18T09:00:35;-4.20;1.00
25933;DHT22;13731;51.166;4.474;2022-12-18T09:03:01;-4.20;1.00
25933;DHT22;13731;51.166;4.474;2022-12-18T09:05:27;-4.20;99.90
25933;DHT22;13731;51.166;4.474;2022-12-18T09:07:53;-4.10;1.00
25933;DHT22;13731;51.166;4.474;2022-12-18T09:10:18;-3.90;1.00
25933;DHT22;13731;51.166;4.474;2022-12-18T09:12:44;-3.70;1.00
25933;DHT22;13731;51.166;4.474;2022-12-18T09:15:10;-3.70;1.00
25933;DHT22;13731;51.166;4.474;2022-12-18T09:17:35;-3.60;1.00
25933;DHT22;13731;51.166;4.474;2022-12-18T09:20:01;-3.70;99.90
25933;DHT22;13731;51.166;4.474;2022-12-18T09:22:27;-3.70;99.90
25933;DHT22;13731;51.166;4.474;2022-12-18T09:24:53;-3.80;1.00
25933;DHT22;13731;51.166;4.474;2022-12-18T09:27:19;-3.80;1.00
25933;DHT22;13731;51.166;4.474;2022-12-18T09:29:44;-3.70;1.00
25933;DHT22;13731;51.166;4.474;2022-12-18T09:32:10;-3.70;1.00
25933;DHT22;13731;51.166;4.474;2022-12-18T09:34:36;-3.50;1.00
25933;DHT22;13731;51.166;4.474;2022-12-18T09:37:01;-3.60;99.90
25933;DHT22;13731;51.166;4.474;2022-12-18T09:39:27;-3.60;99.90
25933;DHT22;13731;51.166;4.474;2022-12-18T09:41:54;-3.50;99.90
25933;DHT22;13731;51.166;4.474;2022-12-18T09:44:26;-3.50;99.90
25933;DHT22;13731;51.166;4.474;2022-12-18T09:47:02;-3.30;1.00
25933;DHT22;13731;51.166;4.474;2022-12-18T09:49:30;-3.30;1.00
25933;DHT22;13731;51.166;4.474;2022-12-18T09:52:02;-3.10;1.00
25933;DHT22;13731;51.166;4.474;2022-12-18T09:54:33;-3.10;99.90
25933;DHT22;13731;51.166;4.474;2022-12-18T09:57:01;-3.10;99.90
25933;DHT22;13731;51.166;4.474;2022-12-18T09:59:29;-3.00;99.90
25933;DHT22;13731;51.166;4.474;2022-12-18T10:01:56;-3.00;1.00
25933;DHT22;13731;51.166;4.474;2022-12-18T10:04:22;-2.90;99.90
25933;DHT22;13731;51.166;4.474;2022-12-18T10:06:55;-2.90;99.90
25933;DHT22;13731;51.166;4.474;2022-12-18T10:09:33;-3.00;1.00
25933;DHT22;13731;51.166;4.474;2022-12-18T10:12:02;-2.80;1.00
25933;DHT22;13731;51.166;4.474;2022-12-18T10:20:13;-2.70;1.00
25933;DHT22;13731;51.166;4.474;2022-12-18T10:27:36;-2.60;1.00
25933;DHT22;13731;51.166;4.474;2022-12-18T10:30:04;-2.60;99.90
25933;DHT22;13731;51.166;4.474;2022-12-18T10:32:30;-2.70;1.00
25933;DHT22;13731;51.166;4.474;2022-12-18T10:34:56;-2.70;1.00
25933;DHT22;13731;51.166;4.474;2022-12-18T10:37:24;-2.70;99.90
25933;DHT22;13731;51.166;4.474;2022-12-18T10:40:23;-2.70;99.90
25933;DHT22;13731;51.166;4.474;2022-12-18T10:42:42;-2.50;1.00
25933;DHT22;13731;51.166;4.474;2022-12-18T10:45:18;-2.30;99.90
25933;DHT22;13731;51.166;4.474;2022-12-18T10:47:44;-2.30;1.00
25933;DHT22;13731;51.166;4.474;2022-12-18T10:50:45;-2.40;1.00
25933;DHT22;13731;51.166;4.474;2022-12-18T10:53:03;-2.40;97.20
25933;DHT22;13731;51.166;4.474;2022-12-18T10:55:31;-2.40;1.00
25933;DHT22;13731;51.166;4.474;2022-12-18T10:58:12;-2.30;64.00
25933;DHT22;13731;51.166;4.474;2022-12-18T11:00:38;-2.00;1.00
25933;DHT22;13731;51.166;4.474;2022-12-18T11:03:07;-1.80;99.90
25933;DHT22;13731;51.166;4.474;2022-12-18T11:05:50;-1.90;1.00
25933;DHT22;13731;51.166;4.474;2022-12-18T11:08:26;-2.00;1.00
25933;DHT22;13731;51.166;4.474;2022-12-18T11:10:51;-2.00;1.00
25933;DHT22;13731;51.166;4.474;2022-12-18T11:13:18;-1.90;99.90
25933;DHT22;13731;51.166;4.474;2022-12-18T11:15:45;-1.80;1.00
25933;DHT22;13731;51.166;4.474;2022-12-18T11:20:53;-1.50;99.90
25933;DHT22;13731;51.166;4.474;2022-12-18T11:23:19;-1.40;99.90
25933;DHT22;13731;51.166;4.474;2022-12-18T11:25:52;-1.30;99.90
25933;DHT22;13731;51.166;4.474;2022-12-18T11:33:40;-1.30;1.00
25933;DHT22;13731;51.166;4.474;2022-12-18T11:36:07;-1.30;1.00
25933;DHT22;13731;51.166;4.474;2022-12-18T11:38:36;-1.20;73.90
25933;DHT22;13731;51.166;4.474;2022-12-18T11:46:15;-0.90;99.90
25933;DHT22;13731;51.166;4.474;2022-12-18T11:51:28;-0.90;99.90
25933;DHT22;13731;51.166;4.474;2022-12-18T11:53:55;-0.90;99.90
25933;DHT22;13731;51.166;4.474;2022-12-18T11:56:35;-0.80;99.90
25933;DHT22;13731;51.166;4.474;2022-12-18T11:59:09;-0.80;99.90
25933;DHT22;13731;51.166;4.474;2022-12-18T12:06:45;-0.80;1.00
25933;DHT22;13731;51.166;4.474;2022-12-18T12:22:13;0.10;99.90
25933;DHT22;13731;51.166;4.474;2022-12-18T12:30:00;0.80;1.00
25933;DHT22;13731;51.166;4.474;2022-12-18T12:39:47;0.00;1.00
25933;DHT22;13731;51.166;4.474;2022-12-18T12:42:18;-0.30;83.90
25933;DHT22;13731;51.166;4.474;2022-12-18T12:45:05;-0.50;1.00
25933;DHT22;13731;51.166;4.474;2022-12-18T12:47:32;-0.30;99.90
25933;DHT22;13731;51.166;4.474;2022-12-18T12:49:59;-0.30;1.00
25933;DHT22;13731;51.166;4.474;2022-12-18T12:52:35;-0.30;1.00
25933;DHT22;13731;51.166;4.474;2022-12-18T12:55:04;0.10;1.00
25933;DHT22;13731;51.166;4.474;2022-12-18T12:57:33;0.40;99.90
25933;DHT22;13731;51.166;4.474;2022-12-18T13:07:55;0.00;99.90
25933;DHT22;13731;51.166;4.474;2022-12-18T13:10:24;0.40;99.90
25933;DHT22;13731;51.166;4.474;2022-12-18T13:13:04;0.40;1.00
25933;DHT22;13731;51.166;4.474;2022-12-18T13:18:03;0.20;23.00
25933;DHT22;13731;51.166;4.474;2022-12-18T13:20:33;0.00;99.90
25933;DHT22;13731;51.166;4.474;2022-12-18T13:23:00;-0.20;5.20
25933;DHT22;13731;51.166;4.474;2022-12-18T13:25:35;0.00;99.90
25933;DHT22;13731;51.166;4.474;2022-12-18T13:28:03;0.20;1.00
25933;DHT22;13731;51.166;4.474;2022-12-18T13:35:40;0.40;39.40
25933;DHT22;13731;51.166;4.474;2022-12-18T13:45:46;0.30;99.90
25933;DHT22;13731;51.166;4.474;2022-12-18T13:48:17;0.40;1.00
25933;DHT22;13731;51.166;4.474;2022-12-18T13:50:47;0.60;99.90
25933;DHT22;13731;51.166;4.474;2022-12-18T13:53:16;0.80;99.90
25933;DHT22;13731;51.166;4.474;2022-12-18T13:55:45;0.50;99.90
25933;DHT22;13731;51.166;4.474;2022-12-18T13:58:11;0.50;99.90
25933;DHT22;13731;51.166;4.474;2022-12-18T14:00:40;0.30;1.00
25933;DHT22;13731;51.166;4.474;2022-12-18T14:03:20;0.30;99.90
25933;DHT22;13731;51.166;4.474;2022-12-18T14:05:51;0.60;1.00
25933;DHT22;13731;51.166;4.474;2022-12-18T14:08:17;0.60;1.00
25933;DHT22;13731;51.166;4.474;2022-12-18T14:10:44;0.60;1.00
25933;DHT22;13731;51.166;4.474;2022-12-18T14:13:11;0.60;1.00
25933;DHT22;13731;51.166;4.474;2022-12-18T14:15:43;0.70;1.00
25933;DHT22;13731;51.166;4.474;2022-12-18T14:18:18;0.50;1.00
25933;DHT22;13731;51.166;4.474;2022-12-18T14:20:45;0.20;1.00
25933;DHT22;13731;51.166;4.474;2022-12-18T14:25:54;0.50;8.10
25933;DHT22;13731;51.166;4.474;2022-12-18T14:28:20;0.60;99.90
25933;DHT22;13731;51.166;4.474;2022-12-18T14:30:49;0.50;99.90
25933;DHT22;13731;51.166;4.474;2022-12-18T14:33:16;0.30;20.30
25933;DHT22;13731;51.166;4.474;2022-12-18T14:35:52;0.30;69.80
25933;DHT22;13731;51.166;4.474;2022-12-18T14:41:00;0.30;99.90
25933;DHT22;13731;51.166;4.474;2022-12-18T14:43:28;0.30;99.90
25933;DHT22;13731;51.166;4.474;2022-12-18T14:45:54;0.40;99.90
25933;DHT22;13731;51.166;4.474;2022-12-18T14:50:53;0.60;99.90
25933;DHT22;13731;51.166;4.474;2022-12-18T14:53:21;0.60;1.00
25933;DHT22;13731;51.166;4.474;2022-12-18T14:55:48;0.50;99.90
25933;DHT22;13731;51.166;4.474;2022-12-18T14:58:14;0.40;1.00
25933;DHT22;13731;51.166;4.474;2022-12-18T15:00:41;0.40;28.40
25933;DHT22;13731;51.166;4.474;2022-12-18T15:03:07;0.50;99.90
25933;DHT22;13731;51.166;4.474;2022-12-18T15:05:33;0.60;99.90
25933;DHT22;13731;51.166;4.474;2022-12-18T15:08:00;0.60;1.00
25933;DHT22;13731;51.166;4.474;2022-12-18T15:10:27;0.50;99.90
25933;DHT22;13731;51.166;4.474;2022-12-18T15:26:11;0.60;30.40
25933;DHT22;13731;51.166;4.474;2022-12-18T15:33:35;0.60;1.00
25933;DHT22;13731;51.166;4.474;2022-12-18T15:36:03;0.50;1.00
25933;DHT22;13731;51.166;4.474;2022-12-18T15:38:29;0.40;83.60
25933;DHT22;13731;51.166;4.474;2022-12-18T15:40:55;0.60;94.00
25933;DHT22;13731;51.166;4.474;2022-12-18T15:43:21;0.70;1.00
25933;DHT22;13731;51.166;4.474;2022-12-18T15:46:21;0.70;99.90
25933;DHT22;13731;51.166;4.474;2022-12-18T15:48:46;0.60;78.50
25933;DHT22;13731;51.166;4.474;2022-12-18T15:51:17;0.60;99.90
25933;DHT22;13731;51.166;4.474;2022-12-18T15:53:43;0.60;99.90
25933;DHT22;13731;51.166;4.474;2022-12-18T15:56:13;0.60;99.90
25933;DHT22;13731;51.166;4.474;2022-12-18T15:58:57;0.50;99.90
25933;DHT22;13731;51.166;4.474;2022-12-18T16:01:24;0.50;99.90
25933;DHT22;13731;51.166;4.474;2022-12-18T16:03:50;0.50;99.90
25933;DHT22;13731;51.166;4.474;2022-12-18T16:06:16;0.40;99.90
25933;DHT22;13731;51.166;4.474;2022-12-18T16:08:41;0.40;99.90
25933;DHT22;13731;51.166;4.474;2022-12-18T16:11:16;0.40;99.90
25933;DHT22;13731;51.166;4.474;2022-12-18T16:13:45;0.40;99.90
25933;DHT22;13731;51.166;4.474;2022-12-18T16:16:11;0.40;99.90
25933;DHT22;13731;51.166;4.474;2022-12-18T16:18:36;0.50;1.00
25933;DHT22;13731;51.166;4.474;2022-12-18T16:21:02;0.50;1.00
25933;DHT22;13731;51.166;4.474;2022-12-18T16:23:28;0.60;1.00
25933;DHT22;13731;51.166;4.474;2022-12-18T16:25:53;0.50;1.00
25933;DHT22;13731;51.166;4.474;2022-12-18T16:28:19;0.60;1.00
25933;DHT22;13731;51.166;4.474;2022-12-18T16:30:45;0.50;1.00
25933;DHT22;13731;51.166;4.474;2022-12-18T16:33:10;0.50;1.00
25933;DHT22;13731;51.166;4.474;2022-12-18T16:35:36;0.60;99.90
25933;DHT22;13731;51.166;4.474;2022-12-18T16:38:02;0.70;99.90
25933;DHT22;13731;51.166;4.474;2022-12-18T16:40:28;0.60;39.00
25933;DHT22;13731;51.166;4.474;2022-12-18T16:42:56;0.60;1.00
25933;DHT22;13731;51.166;4.474;2022-12-18T16:45:22;0.60;1.00
25933;DHT22;13731;51.166;4.474;2022-12-18T16:47:48;0.60;1.00
25933;DHT22;13731;51.166;4.474;2022-12-18T16:50:14;0.70;1.00
25933;DHT22;13731;51.166;4.474;2022-12-18T16:52:40;0.70;1.00
25933;DHT22;13731;51.166;4.474;2022-12-18T16:55:06;0.70;1.00
25933;DHT22;13731;51.166;4.474;2022-12-18T16:57:32;0.80;1.00
25933;DHT22;13731;51.166;4.474;2022-12-18T16:59:58;0.90;1.00
25933;DHT22;13731;51.166;4.474;2022-12-18T17:02:24;1.00;99.90
25933;DHT22;13731;51.166;4.474;2022-12-18T17:04:57;1.10;99.90
25933;DHT22;13731;51.166;4.474;2022-12-18T17:07:23;1.10;99.90
25933;DHT22;13731;51.166;4.474;2022-12-18T17:09:48;1.20;99.30
25933;DHT22;13731;51.166;4.474;2022-12-18T17:12:15;1.20;1.00
25933;DHT22;13731;51.166;4.474;2022-12-18T17:14:41;1.20;1.00
25933;DHT22;13731;51.166;4.474;2022-12-18T17:17:07;1.40;1.00
25933;DHT22;13731;51.166;4.474;2022-12-18T17:19:32;1.50;99.90
25933;DHT22;13731;51.166;4.474;2022-12-18T17:21:58;1.30;1.00
25933;DHT22;13731;51.166;4.474;2022-12-18T17:24:24;1.30;1.00
25933;DHT22;13731;51.166;4.474;2022-12-18T17:26:50;1.30;1.00
25933;DHT22;13731;51.166;4.474;2022-12-18T17:29:17;1.40;99.90
25933;DHT22;13731;51.166;4.474;2022-12-18T17:31:43;1.40;1.00
25933;DHT22;13731;51.166;4.474;2022-12-18T17:34:09;1.40;99.90
25933;DHT22;13731;51.166;4.474;2022-12-18T17:36:35;1.20;1.00
25933;DHT22;13731;51.166;4.474;2022-12-18T17:39:01;1.30;1.00
25933;DHT22;13731;51.166;4.474;2022-12-18T17:41:28;1.20;1.00
25933;DHT22;13731;51.166;4.474;2022-12-18T17:43:58;1.10;11.00
25933;DHT22;13731;51.166;4.474;2022-12-18T17:46:24;0.90;99.90
25933;DHT22;13731;51.166;4.474;2022-12-18T17:48:50;0.90;1.00
25933;DHT22;13731;51.166;4.474;2022-12-18T17:51:17;0.90;55.80
25933;DHT22;13731;51.166;4.474;2022-12-18T17:53:43;0.90;99.90
25933;DHT22;13731;51.166;4.474;2022-12-18T17:56:11;0.90;99.90